x

West Bermuda - 240 Nm West Of Bermuda (41048) Wave Buoy

10:50am - Mon 20th Oct 2014 All times are UTC.

  • Sig Wave height 8.2ft
  • Swell Direction
  • Peak Period 9s
  • Average Period 7s
  • Wind
    13mph, 20mph gusts
  • Sea Temp 80°f
  • Air Temp 73°f
  • Sea Pressure 1017.7mb

More Historic Weather Station data

Upgrade to MSW Pro to gain access to the past 30 days of data for over 8000 Wavebouys and Weather Stations around the globe.

Join Pro

Comparision Forecast

View Surf forecast
   
Mon 10/20 10:50am 8ft 9s 7s 13 20 mph 1017.7mb 80f 73f
9:50am 9ft 9s 7s 11 16 mph 1017.2mb 80f 73f
8:50am 8ft 8s 7s 13 18 mph 1016.7mb 80f 73f
7:50am 8ft 8s 7s 13 18 mph 1016.4mb 80f 73f
6:50am 7ft 8s 6s 11 13 mph 1016.3mb 80f 74f
5:50am 7ft 8s 6s 13 18 mph 1016.2mb 80f 74f
2:50am 8.5ft 8s 7s 13 16 mph 1016.3mb 80f 74f
1:50am 8ft 8s 6s 16 20 mph 1015.7mb 80f 74f
12:50am 8ft 8s 6s 20 25 mph 1015.1mb 80f 75f
Sun 10/19 11:50pm 8ft 8s 6s 20 25 mph 1014.2mb 80f 76f
10:50pm 7ft 8s 6s 20 25 mph 1013.5mb 80f 76f
9:50pm 7ft 8s 6s 22 29 mph 1012.6mb 80f 76f
8:50pm 6ft 7s 6s 25 29 mph 1011.8mb 80f 76f
7:50pm 7ft 7s 6s 22 27 mph 1011.2mb 80f 80f
6:50pm 6ft 6s 6s 22 27 mph 1011mb 80f 80f
5:50pm 6ft 7s 6s 22 27 mph 1011mb 80f 80f
4:50pm 6ft 7s 6s 22 25 mph 1011.8mb 80f 80f
3:50pm 6ft 7s 6s 22 27 mph 1012.2mb 80f 80f
2:50pm 6ft 7s 6s 22 29 mph 1012.5mb 80f 80f
1:50pm 5.5ft 7s 6s 20 25 mph 1012.7mb 80f 80f
12:50pm 5.5ft 6s 6s 22 27 mph 1012.6mb 80f 80f
11:50am 5ft 6s 5s 20 25 mph 1012.1mb 80f 79f
10:50am 5ft 6s 5s 18 22 mph 1011.7mb 80f 79f
9:50am 5ft 6s 5s 20 22 mph 1011.5mb 80f 78f
8:50am 5.5ft 6s 6s 18 22 mph 1011.2mb 80f 78f
7:50am 5ft 10s 6s 18 22 mph 1011.3mb 80f 78f
6:50am 5ft 10s 6s 16 18 mph 1011.5mb 80f 78f
5:50am 5.5ft 9s 6s 13 18 mph 1011.9mb 80f 78f
4:50am 5ft 6s 6s 13 18 mph 1012.3mb 80f 78f
3:50am 5ft 8s 6s 13 18 mph 1012.4mb 80f 78f
2:50am 5ft 10s 6s 11 18 mph 1012.7mb 80f 78f
1:50am 5ft 11s 6s 13 16 mph 1012.8mb 80f 78f
12:50am 5ft 9s 6s 13 16 mph 1012.6mb 80f 78f
Sat 10/18 11:50pm 5ft 11s 6s 13 16 mph 1012.1mb 80f 78f
10:50pm 5ft 9s 7s 9 11 mph 1011.6mb 80f 78f
9:50pm 5ft 11s 6s 13 18 mph 1011.2mb 80f 78f
8:50pm 5ft 10s 7s 13 18 mph 1010.7mb 80f 78f
7:50pm 5ft 11s 7s 13 18 mph 1009.7mb 80f 78f
6:50pm 6ft 10s 7s 13 18 mph 1010.2mb 80f 78f
5:50pm 6ft 10s 7s 13 18 mph 1010.4mb 80f 78f
4:50pm 6ft 10s 7s 13 18 mph 1010.8mb 80f 78f
3:50pm 6ft 11s 7s 13 18 mph 1011.4mb 80f 78f
2:50pm 7ft 11s 7s 16 20 mph 1011.5mb 80f 77f
1:50pm 7ft 11s 7s 16 20 mph 1011.4mb 80f 77f
12:50pm 6.5ft 11s 6s 16 18 mph 1011mb 80f 77f
11:50am 7ft 11s 6s 16 22 mph 1010.6mb 80f 77f
10:50am 6.5ft 12s 6s 18 22 mph 1009.9mb 80f 77f
9:50am 7ft 10s 7s 18 25 mph 1009.1mb 80f 77f
8:50am 7.5ft 12s 7s 18 22 mph 1008.7mb 80f 76f
7:50am 8ft 11s 7s 16 22 mph 1008.6mb 80f 76f
6:50am 9ft 13s 7s 16 22 mph 1008.6mb 80f 77f
5:50am 9ft 12s 7s 18 22 mph 1008.7mb 80f 77f
4:50am 10ft 13s 7s 18 22 mph 1008.7mb 80f 77f
3:50am 10ft 12s 7s 18 22 mph 1008.7mb 80f 78f
2:50am 10ft 13s 8s 20 22 mph 1008.7mb 80f 78f
1:50am 12ft 13s 8s 20 27 mph 1008.6mb 80f 77f
12:50am 12.5ft 13s 9s 22 29 mph 1008.3mb 80f 76f
Fri 10/17 11:50pm 11.5ft 13s 8s 20 25 mph 1008.1mb 80f 78f
10:50pm 12ft 12s 8s 20 27 mph 1007.5mb 80f 78f
9:50pm 13ft 12s 8s 20 27 mph 1007.2mb 80f 78f
8:50pm 14ft 14s 9s 22 27 mph 1006.9mb 80f 77f
7:50pm 13ft 14s 9s 22 29 mph 1005.3mb 80f 77f
6:50pm 13ft 13s 8s 22 27 mph 1006.7mb 80f 77f
5:50pm 13ft 14s 8s 22 29 mph 1006.9mb 80f 76f
4:50pm 11ft 13s 8s 25 29 mph 1007.6mb 80f 76f
3:50pm 13ft 14s 8s 25 31 mph 1008.3mb 80f 73f
2:50pm 12ft 14s 8s 25 31 mph 1008.9mb 80f 74f
1:50pm 11ft 14s 8s 27 34 mph 1008.5mb 80f 74f
12:50pm 13ft 15s 10s 18 25 mph 1008.2mb 80f 77f
11:50am 11.5ft 13s 9s 11 20 mph 1008mb 80f 76f
10:50am 11ft 14s 9s 4 11 mph 1007.4mb 80f 79f
9:50am 12ft 14s 9s 2 4 mph 1006.9mb 80f 80f
8:50am 12ft 15s 9s 7 11 mph 1006.6mb 80f 80f
7:50am 12ft 14s 9s 11 16 mph 1006.9mb 80f 80f
6:50am 10ft 9s 8s 11 13 mph 1007.4mb 80f 79f
5:50am 9ft 8s 7s 13 16 mph 1007.8mb 80f 80f
4:50am 8ft 13s 7s 13 18 mph 1008.2mb 80f 80f
3:50am 8.5ft 10s 7s 20 22 mph 1009mb 80f 80f
2:50am 9ft 11s 7s 18 22 mph 1009.6mb 80f 80f
1:50am 9ft 10s 7s 20 25 mph 1009.4mb 80f 80f
12:50am 9ft 12s 7s 22 27 mph 1009.7mb 80f 80f
Thu 10/16 11:50pm 8ft 12s 7s 22 27 mph 1010.1mb 80f 80f
10:50pm 8.5ft 10s 7s 18 25 mph 1010.3mb 80f 80f
9:50pm 8.5ft 10s 6s 20 25 mph 1010mb 80f 80f
8:50pm 9ft 11s 7s 22 27 mph 1010.2mb 80f 80f
7:50pm 9ft 11s 7s 22 27 mph 1010.2mb 80f 80f
6:50pm 9.5ft 11s 7s 22 25 mph 1010.4mb 80f 80f
5:50pm 10.5ft 10s 7s 20 25 mph 1011.2mb 80f 79f
4:50pm 10ft 11s 7s 25 29 mph 1011.8mb 80f 79f
3:50pm 9ft 11s 7s 25 31 mph 1012.4mb 80f 80f
2:50pm 8.5ft 10s 6s 25 27 mph 1013.3mb 80f 80f
1:50pm 8ft 11s 6s 22 27 mph 1013.6mb 80f 80f
12:50pm 8.5ft 11s 7s 20 22 mph 1014.4mb 80f 79f